Time;durP1;ratioP1;P1;durP2;ratioP2;P2;SDS_P1;SDS_P2;PMS_P1;PMS_P2;Temp;Humidity;BMP_temperature;BMP_pressure;BME280_temperature;BME280_humidity;BME280_pressure;Samples;Min_cycle;Max_cycle;Signal;HPM_P1;HPM_P2
2022/06/30 00:01:39;;;;;;;25.60;15.73;;;;;;;18.07;88.36;100896.44;5070223;28;20071;-79
2022/06/30 00:04:04;;;;;;;26.15;16.42;;;;;;;18.03;87.92;100903.22;5065422;28;20024;-79
2022/06/30 00:06:30;;;;;;;23.48;16.13;;;;;;;18.03;87.81;100909.50;5069211;28;20064;-79
2022/06/30 00:08:55;;;;;;;26.17;16.50;;;;;;;18.02;87.67;100898.78;5070280;28;20028;-79
2022/06/30 00:11:21;;;;;;;26.55;16.73;;;;;;;18.02;88.41;100896.91;5070192;28;20028;-79
2022/06/30 00:13:47;;;;;;;25.17;16.95;;;;;;;18.01;88.58;100900.66;5068864;28;20502;-79
2022/06/30 00:16:12;;;;;;;24.70;15.55;;;;;;;18.00;88.65;100893.50;5069794;28;20033;-79
2022/06/30 00:18:38;;;;;;;23.05;14.65;;;;;;;17.96;88.71;100892.13;5069178;28;20111;-79
2022/06/30 00:21:04;;;;;;;22.42;14.40;;;;;;;17.90;89.02;100890.03;5072765;28;20434;-79
2022/06/30 00:23:30;;;;;;;25.67;14.68;;;;;;;17.82;89.38;100879.94;5070950;28;20515;-79
2022/06/30 00:25:55;;;;;;;21.90;13.05;;;;;;;17.80;89.33;100877.38;5070320;28;20103;-79
2022/06/30 00:28:21;;;;;;;23.55;13.38;;;;;;;17.79;89.55;100872.94;5072054;28;20051;-79
2022/06/30 00:30:47;;;;;;;22.83;13.65;;;;;;;17.74;89.26;100867.13;5070908;28;20082;-79
2022/06/30 00:33:12;;;;;;;23.52;12.90;;;;;;;17.72;90.10;100866.44;5071191;28;20078;-79
2022/06/30 00:35:37;;;;;;;23.90;14.10;;;;;;;17.70;90.28;100870.31;5062090;28;20495;-79
2022/06/30 00:38:04;;;;;;;22.92;13.77;;;;;;;17.65;89.91;100874.38;5069491;28;20070;-79
2022/06/30 00:40:40;;;;;;;21.83;12.48;;;;;;;17.60;90.02;100871.28;5071317;28;20036;-78
2022/06/30 00:43:05;;;;;;;25.50;12.80;;;;;;;17.56;90.01;100869.88;5071077;28;20036;-78
2022/06/30 00:45:31;;;;;;;23.08;13.35;;;;;;;17.55;90.12;100872.75;5069359;28;20155;-78
2022/06/30 00:47:58;;;;;;;22.15;13.55;;;;;;;17.50;90.18;100883.25;5067102;28;20148;-78
2022/06/30 00:50:24;;;;;;;22.05;12.15;;;;;;;17.44;90.36;100877.44;5071568;28;20033;-78
2022/06/30 00:52:50;;;;;;;21.70;12.90;;;;;;;17.42;90.44;100881.31;5068875;28;20501;-78
2022/06/30 00:55:17;;;;;;;23.30;13.68;;;;;;;17.40;90.94;100881.47;5067596;28;20116;-78
2022/06/30 00:57:43;;;;;;;25.40;14.18;;;;;;;17.39;90.57;100873.47;5070416;28;20157;-78
2022/06/30 01:00:15;;;;;;;27.63;13.63;;;;;;;17.37;91.04;100884.50;5070011;28;20117;-78
2022/06/30 01:02:41;;;;;;;27.17;13.95;;;;;;;17.30;91.04;100878.00;5050695;28;20123;-78
2022/06/30 01:05:07;;;;;;;21.58;13.90;;;;;;;17.30;91.14;100872.56;5071006;28;20032;-79
2022/06/30 01:07:33;;;;;;;24.13;12.43;;;;;;;17.28;91.77;100878.16;5068266;28;20422;-79
2022/06/30 01:12:45;;;;;;;20.70;11.65;;;;;;;17.24;91.41;100871.31;5070150;28;20043;-79
2022/06/30 01:15:15;;;;;;;24.35;14.60;;;;;;;17.21;91.69;100876.22;5066847;28;20090;-79
2022/06/30 01:17:41;;;;;;;22.98;14.15;;;;;;;17.19;91.88;100878.22;5069209;28;20105;-79
2022/06/30 01:20:07;;;;;;;24.23;13.68;;;;;;;17.16;91.93;100873.97;5055918;28;20107;-79
2022/06/30 01:22:33;;;;;;;22.40;13.30;;;;;;;17.12;92.40;100872.56;5066722;28;20059;-79
2022/06/30 01:24:58;;;;;;;23.77;13.57;;;;;;;17.15;92.43;100874.97;5064834;28;20484;-78
2022/06/30 01:27:23;;;;;;;24.15;14.40;;;;;;;17.13;92.37;100877.00;5069684;28;20039;-78
2022/06/30 01:29:50;;;;;;;22.40;13.90;;;;;;;17.09;92.03;100879.16;5071294;28;20021;-78
2022/06/30 01:32:16;;;;;;;23.52;13.43;;;;;;;17.07;92.11;100886.63;5068443;28;20879;-78
2022/06/30 01:34:41;;;;;;;23.25;12.88;;;;;;;17.05;91.90;100883.19;5069279;28;20116;-78
2022/06/30 01:37:06;;;;;;;24.50;13.63;;;;;;;17.05;91.96;100883.19;5065441;28;20835;-78
2022/06/30 01:39:32;;;;;;;21.80;13.07;;;;;;;17.04;91.53;100886.94;5062678;28;20477;-78
2022/06/30 01:41:58;;;;;;;23.38;14.80;;;;;;;17.03;92.11;100884.34;5066998;28;20550;-78
2022/06/30 01:44:23;;;;;;;24.05;14.23;;;;;;;16.97;91.83;100880.41;5061116;28;20074;-78
2022/06/30 01:46:50;;;;;;;22.80;13.80;;;;;;;16.97;92.12;100888.53;5066503;28;20027;-78
2022/06/30 01:49:16;;;;;;;21.50;13.07;;;;;;;16.94;92.14;100888.81;5067016;28;20043;-78
2022/06/30 01:51:41;;;;;;;22.60;12.57;;;;;;;16.92;92.34;100886.25;5069570;28;20403;-78
2022/06/30 01:54:08;;;;;;;20.02;12.05;;;;;;;16.91;92.24;100879.16;5068367;28;20119;-78
2022/06/30 01:56:34;;;;;;;21.58;13.00;;;;;;;16.90;92.87;100879.31;5068680;28;20091;-78
2022/06/30 01:59:00;;;;;;;21.98;12.75;;;;;;;16.90;92.29;100890.16;5066703;28;20103;-78
2022/06/30 02:01:25;;;;;;;22.58;13.02;;;;;;;16.88;92.22;100881.28;5069137;28;20108;-78
2022/06/30 02:03:50;;;;;;;21.67;12.20;;;;;;;16.87;92.30;100880.47;5070144;28;20027;-79
2022/06/30 02:06:16;;;;;;;22.15;12.98;;;;;;;16.86;92.41;100886.84;5068639;28;20033;-79
2022/06/30 02:08:42;;;;;;;24.15;13.18;;;;;;;16.85;91.79;100889.72;5066963;28;20078;-79
2022/06/30 02:11:07;;;;;;;25.08;12.30;;;;;;;16.83;91.68;100891.75;5066149;28;20123;-78
2022/06/30 02:13:32;;;;;;;26.50;13.73;;;;;;;16.81;91.78;100900.03;5051926;28;20396;-78
2022/06/30 02:15:57;;;;;;;22.27;12.52;;;;;;;16.78;91.75;100898.47;5067772;28;20102;-78
2022/06/30 02:18:23;;;;;;;22.08;11.88;;;;;;;16.75;91.69;100893.34;5066517;28;20040;-78
2022/06/30 02:20:48;;;;;;;21.80;13.00;;;;;;;16.72;92.07;100896.38;5070335;28;20021;-78
2022/06/30 02:23:14;;;;;;;23.48;14.18;;;;;;;16.70;91.66;100890.22;5068352;28;20411;-78
2022/06/30 02:25:39;;;;;;;22.08;12.70;;;;;;;16.69;91.73;100909.38;5069403;28;20112;-78
2022/06/30 02:28:05;;;;;;;23.02;13.00;;;;;;;16.69;91.59;100918.41;5065874;28;20060;-78
2022/06/30 02:30:31;;;;;;;21.33;12.40;;;;;;;16.66;90.77;100910.56;5067457;28;20020;-78
2022/06/30 02:32:56;;;;;;;25.15;12.73;;;;;;;16.67;91.54;100909.53;5069141;28;20116;-78
2022/06/30 02:35:22;;;;;;;21.77;12.85;;;;;;;16.66;91.44;100909.69;5068841;28;20111;-78
2022/06/30 02:37:47;;;;;;;26.92;14.13;;;;;;;16.62;90.40;100903.72;5067587;28;20506;-78
2022/06/30 02:40:13;;;;;;;23.00;13.68;;;;;;;16.60;90.27;100901.16;5068249;28;20028;-78
2022/06/30 02:42:38;;;;;;;23.75;13.32;;;;;;;16.58;91.00;100902.31;5068199;28;20077;-78
2022/06/30 02:45:04;;;;;;;23.50;14.68;;;;;;;16.55;90.97;100905.31;5068652;28;20021;-78
2022/06/30 02:47:35;;;;;;;22.20;12.75;;;;;;;16.47;90.97;100899.78;5060393;28;20020;-78
2022/06/30 02:50:05;;;;;;;22.90;13.35;;;;;;;16.46;91.08;100900.78;5067162;28;20290;-78
2022/06/30 02:52:31;;;;;;;24.30;14.40;;;;;;;16.40;91.18;100905.81;5057496;28;20112;-78
2022/06/30 02:54:57;;;;;;;23.85;14.70;;;;;;;16.38;91.33;100901.53;5068766;28;20064;-78
2022/06/30 02:57:23;;;;;;;24.70;14.73;;;;;;;16.36;91.14;100898.97;5065677;28;20427;-78
2022/06/30 02:59:48;;;;;;;24.33;14.27;;;;;;;16.35;91.48;100893.69;5059456;28;20025;-78
2022/06/30 03:02:13;;;;;;;24.95;13.55;;;;;;;16.31;91.16;100887.72;5067161;28;20110;-78
2022/06/30 03:04:38;;;;;;;23.33;14.55;;;;;;;16.29;91.88;100895.13;5068150;28;20483;-78
2022/06/30 03:07:04;;;;;;;23.25;13.63;;;;;;;16.23;91.38;100896.59;5065752;28;20032;-78
2022/06/30 03:09:29;;;;;;;25.25;14.32;;;;;;;16.20;91.76;100883.31;5061887;28;20151;-78
2022/06/30 03:11:55;;;;;;;26.42;15.50;;;;;;;16.16;91.81;100890.03;5068843;28;20067;-78
2022/06/30 03:14:20;;;;;;;25.73;14.63;;;;;;;16.17;91.64;100885.50;5066756;28;20024;-78
2022/06/30 03:16:45;;;;;;;23.48;14.32;;;;;;;16.10;92.08;100887.94;5066418;28;20032;-78
2022/06/30 03:19:11;;;;;;;23.77;13.75;;;;;;;16.07;92.35;100891.78;5068404;28;20044;-78
2022/06/30 03:21:36;;;;;;;25.13;14.38;;;;;;;16.04;91.80;100885.81;5086701;28;20032;-78
2022/06/30 03:24:02;;;;;;;24.52;14.43;;;;;;;16.01;91.95;100878.81;5056702;28;20135;-78
2022/06/30 03:26:27;;;;;;;23.73;14.93;;;;;;;15.99;92.32;100883.56;5064891;28;20028;-78
2022/06/30 03:28:52;;;;;;;24.73;14.73;;;;;;;15.97;91.97;100885.53;5070462;28;20086;-78
2022/06/30 03:31:18;;;;;;;24.25;14.15;;;;;;;15.95;92.24;100889.41;5072814;28;20103;-78
2022/06/30 03:33:43;;;;;;;23.50;13.63;;;;;;;15.93;92.31;100885.97;5072156;28;20506;-78
2022/06/30 03:36:09;;;;;;;23.65;14.65;;;;;;;15.91;92.06;100891.56;5069483;28;20111;-78
2022/06/30 03:38:34;;;;;;;22.35;12.95;;;;;;;15.91;92.04;100886.13;5068212;28;20139;-78
2022/06/30 03:40:59;;;;;;;23.17;13.75;;;;;;;15.89;92.13;100880.84;5068312;28;20040;-78
2022/06/30 03:43:25;;;;;;;23.42;14.02;;;;;;;15.89;92.37;100880.00;5070593;28;20020;-78
2022/06/30 03:45:50;;;;;;;23.92;14.60;;;;;;;15.88;92.72;100878.28;5070238;28;20048;-78
2022/06/30 03:48:15;;;;;;;25.60;15.00;;;;;;;15.87;93.14;100882.88;5070425;28;20020;-78
2022/06/30 03:50:41;;;;;;;24.90;15.07;;;;;;;15.83;93.41;100880.59;5076755;28;20131;-78
2022/06/30 03:53:06;;;;;;;24.00;15.02;;;;;;;15.84;93.28;100882.28;5070471;28;20052;-78
2022/06/30 03:55:33;;;;;;;25.95;14.55;;;;;;;15.83;93.35;100878.75;5069545;28;20032;-78
2022/06/30 03:57:59;;;;;;;24.23;14.48;;;;;;;15.84;93.43;100871.44;5072061;28;20391;-78
2022/06/30 04:00:24;;;;;;;23.92;14.20;;;;;;;15.85;93.70;100878.59;5068555;28;20059;-79
2022/06/30 04:02:50;;;;;;;24.80;14.30;;;;;;;15.82;93.66;100868.91;5070502;28;20028;-79
2022/06/30 04:05:15;;;;;;;23.05;13.27;;;;;;;15.82;93.46;100874.31;5069903;28;20380;-79
2022/06/30 04:07:42;;;;;;;25.63;14.60;;;;;;;15.80;93.66;100865.47;5067799;28;20439;-79
2022/06/30 04:10:09;;;;;;;24.92;13.68;;;;;;;15.83;93.63;100869.78;5065517;28;20048;-79
2022/06/30 04:12:36;;;;;;;24.52;14.68;;;;;;;15.83;93.61;100865.19;5070582;28;20402;-78
2022/06/30 04:15:01;;;;;;;25.85;14.55;;;;;;;15.83;93.72;100867.91;5071042;28;20150;-78
2022/06/30 04:17:26;;;;;;;23.52;14.68;;;;;;;15.84;94.08;100872.31;5067180;28;20028;-78
2022/06/30 04:19:51;;;;;;;22.52;14.10;;;;;;;15.88;94.22;100889.13;5072698;28;20112;-78
2022/06/30 04:22:17;;;;;;;24.65;15.35;;;;;;;15.94;93.88;100882.28;5068469;28;20052;-78
2022/06/30 04:24:42;;;;;;;22.38;13.93;;;;;;;16.02;93.69;100888.69;5070887;28;20031;-77
2022/06/30 04:27:07;;;;;;;24.73;15.32;;;;;;;16.11;93.09;100888.81;5068458;28;20093;-77
2022/06/30 04:29:33;;;;;;;23.02;14.20;;;;;;;16.17;93.50;100888.22;5064615;28;20124;-78
2022/06/30 04:34:43;;;;;;;23.95;14.65;;;;;;;16.24;93.09;100905.59;5066233;28;20051;-78
2022/06/30 04:37:08;;;;;;;24.77;15.50;;;;;;;16.30;92.35;100942.13;5061875;28;20111;-77
2022/06/30 04:39:33;;;;;;;28.70;19.42;;;;;;;16.34;92.20;100909.13;5068849;28;20021;-78
2022/06/30 04:41:58;;;;;;;26.73;18.48;;;;;;;16.38;91.98;100910.53;5070327;28;20032;-77
2022/06/30 04:44:24;;;;;;;25.48;18.45;;;;;;;16.42;91.85;100940.94;5068592;28;20048;-77
2022/06/30 04:46:49;;;;;;;28.35;19.30;;;;;;;16.47;91.63;100914.22;5070998;28;20478;-77
2022/06/30 04:49:14;;;;;;;25.83;19.67;;;;;;;16.47;91.06;100937.75;5068083;28;20051;-78
2022/06/30 04:51:40;;;;;;;30.45;19.80;;;;;;;16.48;91.49;100943.03;5072836;28;20027;-77
2022/06/30 04:54:05;;;;;;;31.30;21.60;;;;;;;16.48;91.40;100928.63;5065215;28;20033;-78
2022/06/30 04:56:33;;;;;;;29.52;20.42;;;;;;;16.49;91.89;100946.63;5070311;28;20033;-78
2022/06/30 04:58:58;;;;;;;31.27;21.42;;;;;;;16.49;92.05;100924.91;5066855;28;20042;-78
2022/06/30 05:01:24;;;;;;;28.33;21.83;;;;;;;16.51;91.73;100939.19;5058277;28;20033;-78
2022/06/30 05:03:49;;;;;;;31.83;22.80;;;;;;;16.54;91.74;100944.31;5068689;28;20051;-78
2022/06/30 05:06:14;;;;;;;28.60;22.35;;;;;;;16.53;91.70;100937.16;5068001;28;20032;-78
2022/06/30 05:08:40;;;;;;;31.02;23.52;;;;;;;16.56;92.09;100932.31;5066540;28;20469;-78
2022/06/30 05:11:06;;;;;;;32.58;23.85;;;;;;;16.56;91.95;100937.72;5068325;28;20101;-78
2022/06/30 05:13:31;;;;;;;31.48;23.27;;;;;;;16.59;92.16;100939.28;5068149;28;20028;-78
2022/06/30 05:15:56;;;;;;;31.63;23.25;;;;;;;16.60;91.83;100931.00;5069371;28;20038;-78
2022/06/30 05:18:24;;;;;;;32.17;23.60;;;;;;;16.63;92.16;100940.69;5070125;28;20469;-78
2022/06/30 05:20:49;;;;;;;33.63;25.00;;;;;;;16.63;91.64;100932.53;5080122;28;20032;-78
2022/06/30 05:23:15;;;;;;;31.73;24.02;;;;;;;16.67;92.04;100933.09;5076208;28;20070;-78
2022/06/30 05:28:24;;;;;;;34.42;24.08;;;;;;;16.75;91.83;100930.47;5067035;28;20039;-78
2022/06/30 05:30:51;;;;;;;31.17;24.25;;;;;;;16.75;91.40;100934.06;5070923;28;20020;-78
2022/06/30 05:33:20;;;;;;;31.92;21.75;;;;;;;16.82;90.94;100936.16;5069173;28;20101;-78
2022/06/30 05:35:50;;;;;;;30.58;22.40;;;;;;;16.83;90.40;100940.59;5069231;28;20036;-79
2022/06/30 05:38:16;;;;;;;28.88;21.38;;;;;;;16.84;89.47;100934.16;5059276;28;20033;-78
2022/06/30 05:40:45;;;;;;;29.80;19.92;;;;;;;16.83;89.57;100935.19;5061970;28;20032;-78
2022/06/30 05:43:12;;;;;;;29.30;19.10;;;;;;;16.86;89.02;100941.13;5070193;28;20039;-78
2022/06/30 05:45:38;;;;;;;27.38;16.70;;;;;;;16.89;88.36;100946.28;5067620;28;20016;-78
2022/06/30 05:48:03;;;;;;;28.65;18.30;;;;;;;16.92;88.54;100950.56;5068774;28;20100;-78
2022/06/30 05:50:30;;;;;;;27.45;17.27;;;;;;;16.93;88.33;100941.44;5075912;28;20368;-78
2022/06/30 05:52:56;;;;;;;26.08;16.70;;;;;;;16.97;88.31;100945.56;5065899;28;20103;-78
2022/06/30 05:55:21;;;;;;;26.98;15.48;;;;;;;17.01;88.33;100946.94;5063213;28;20029;-79
2022/06/30 05:58:01;;;;;;;24.20;15.77;;;;;;;17.02;88.12;100943.22;5070402;28;20039;-78
2022/06/30 06:00:27;;;;;;;30.10;15.63;;;;;;;17.06;88.06;100944.63;5061985;28;20120;-78
2022/06/30 06:02:53;;;;;;;25.05;14.50;;;;;;;17.07;87.64;100940.91;5066647;28;20380;-78
2022/06/30 06:05:19;;;;;;;23.40;13.35;;;;;;;17.09;87.07;100947.03;5068979;28;20025;-78
2022/06/30 06:07:44;;;;;;;24.20;13.35;;;;;;;17.12;87.48;100943.16;5068726;28;20087;-78
2022/06/30 06:10:13;;;;;;;23.88;13.45;;;;;;;17.14;88.31;100948.44;5057116;28;20048;-78
2022/06/30 06:12:38;;;;;;;25.52;13.73;;;;;;;17.15;88.31;100948.28;5063263;28;20500;-79
2022/06/30 06:15:04;;;;;;;26.25;13.07;;;;;;;17.20;88.19;100948.66;5057999;28;20032;-79
2022/06/30 06:17:30;;;;;;;24.58;12.88;;;;;;;17.25;88.75;100954.50;5067847;28;20060;-79
2022/06/30 06:19:56;;;;;;;25.05;12.95;;;;;;;17.25;87.72;100954.50;5070207;28;20104;-78
2022/06/30 06:22:22;;;;;;;25.02;13.55;;;;;;;17.29;88.25;100955.03;5068987;28;20173;-78
2022/06/30 06:24:47;;;;;;;24.40;12.00;;;;;;;17.30;87.39;100952.16;5070839;28;20526;-78
2022/06/30 06:27:12;;;;;;;25.92;12.20;;;;;;;17.33;87.43;100961.88;5065262;28;20710;-78
2022/06/30 06:29:38;;;;;;;28.42;12.88;;;;;;;17.36;87.66;100961.56;5062749;28;20380;-76
2022/06/30 06:32:03;;;;;;;23.08;11.55;;;;;;;17.42;87.58;100966.41;5066627;28;20028;-77
2022/06/30 06:34:28;;;;;;;22.98;11.75;;;;;;;17.47;87.78;100969.50;5067572;28;20391;-77
2022/06/30 06:36:54;;;;;;;22.52;11.98;;;;;;;17.52;87.05;100971.75;5064817;28;20448;-77
2022/06/30 06:39:19;;;;;;;26.33;11.32;;;;;;;17.55;86.60;100965.16;5067013;28;20040;-77
2022/06/30 06:41:44;;;;;;;22.40;10.30;;;;;;;17.57;86.85;100963.13;5062954;28;20043;-76
2022/06/30 06:44:09;;;;;;;24.42;11.85;;;;;;;17.64;87.84;100970.53;5063705;28;20032;-77
2022/06/30 06:46:35;;;;;;;23.52;10.80;;;;;;;17.67;87.38;100974.78;5067360;28;20514;-78
2022/06/30 06:49:03;;;;;;;22.50;10.38;;;;;;;17.75;87.66;100971.28;5066866;28;20169;-78
2022/06/30 06:51:29;;;;;;;27.40;11.57;;;;;;;17.80;86.66;100969.81;5068246;28;20392;-79
2022/06/30 06:53:56;;;;;;;25.30;11.98;;;;;;;17.86;86.50;100978.34;5064564;28;20024;-80
2022/06/30 06:56:22;;;;;;;24.92;12.35;;;;;;;17.87;85.98;100983.63;5063835;28;20510;-80
2022/06/30 06:58:47;;;;;;;24.10;10.95;;;;;;;17.92;86.44;100991.34;5071295;28;20032;-81
2022/06/30 07:01:12;;;;;;;23.38;11.50;;;;;;;17.93;85.77;100990.34;5071573;28;20032;-81
2022/06/30 07:03:38;;;;;;;23.80;11.07;;;;;;;17.96;86.09;100992.72;5072269;28;20472;-81
2022/06/30 07:06:04;;;;;;;22.33;10.20;;;;;;;18.03;86.49;100991.09;5072594;28;20089;-81
2022/06/30 07:08:30;;;;;;;20.63;9.40;;;;;;;18.07;86.17;100997.94;5069504;28;20448;-81
2022/06/30 07:10:56;;;;;;;23.23;9.80;;;;;;;18.14;86.93;101007.16;5068973;28;20075;-81
2022/06/30 07:13:22;;;;;;;25.90;11.77;;;;;;;18.20;85.50;101007.53;5065300;28;20032;-77
2022/06/30 07:15:48;;;;;;;20.75;8.60;;;;;;;18.24;85.21;101017.09;5070294;28;20016;-77
2022/06/30 07:18:13;;;;;;;21.73;8.15;;;;;;;18.29;85.09;101022.94;5087360;28;20677;-76
2022/06/30 07:20:38;;;;;;;22.95;9.48;;;;;;;18.34;85.58;101026.00;5090660;28;20625;-76
2022/06/30 07:23:04;;;;;;;25.33;10.15;;;;;;;18.38;85.48;101026.56;5084266;28;20029;-77
2022/06/30 07:25:29;;;;;;;26.38;9.68;;;;;;;18.41;83.64;101020.78;5069711;28;20016;-77
2022/06/30 07:27:55;;;;;;;22.10;8.98;;;;;;;18.49;85.20;101027.16;5066240;28;20103;-76
2022/06/30 07:30:20;;;;;;;20.75;9.27;;;;;;;18.51;84.10;101019.66;5070244;28;20036;-76
2022/06/30 07:32:45;;;;;;;20.85;9.27;;;;;;;18.56;83.22;101018.31;5069821;28;20063;-76
2022/06/30 07:35:10;;;;;;;19.42;7.85;;;;;;;18.62;83.13;101014.97;5070819;28;20036;-76
2022/06/30 07:37:38;;;;;;;24.50;8.35;;;;;;;18.63;82.58;101013.94;5068161;28;20025;-76
2022/06/30 07:40:04;;;;;;;19.20;7.63;;;;;;;18.67;81.95;101020.78;5069996;28;20610;-76
2022/06/30 07:42:29;;;;;;;20.13;7.70;;;;;;;18.70;81.58;101020.47;5066281;28;20031;-77
2022/06/30 07:44:54;;;;;;;25.10;7.25;;;;;;;18.75;81.12;101009.91;5070518;28;20434;-76
2022/06/30 07:47:20;;;;;;;18.02;7.05;;;;;;;18.78;81.32;101017.75;5068892;28;20024;-76
2022/06/30 07:49:45;;;;;;;18.15;6.80;;;;;;;18.84;80.70;101019.88;5086269;28;20056;-76
2022/06/30 07:52:10;;;;;;;21.10;7.75;;;;;;;18.89;80.27;101013.06;5066181;28;20484;-76
2022/06/30 07:54:36;;;;;;;23.30;8.20;;;;;;;18.97;81.32;101021.28;5067348;28;20040;-80
2022/06/30 07:57:01;;;;;;;20.48;7.25;;;;;;;19.02;80.03;101018.94;5047262;28;20040;-80
2022/06/30 07:59:27;;;;;;;20.35;6.95;;;;;;;19.08;77.46;101022.88;5073636;28;20033;-80
2022/06/30 08:01:52;;;;;;;20.25;7.07;;;;;;;19.13;77.63;101007.72;5078830;28;20483;-80
2022/06/30 08:04:17;;;;;;;18.42;6.72;;;;;;;19.14;76.17;101012.19;5082565;28;20361;-80
2022/06/30 08:06:43;;;;;;;20.27;7.18;;;;;;;19.19;77.20;101004.34;5072080;28;20049;-80
2022/06/30 08:09:09;;;;;;;23.77;7.57;;;;;;;19.25;75.93;101008.28;5068237;28;20047;-80
2022/06/30 08:11:34;;;;;;;17.08;6.28;;;;;;;19.28;76.09;100998.94;5077685;28;20044;-80
2022/06/30 08:13:59;;;;;;;18.48;6.45;;;;;;;19.33;77.10;101007.47;5070886;28;20059;-80
2022/06/30 08:16:25;;;;;;;20.25;6.47;;;;;;;19.38;76.50;101010.53;5073567;28;20069;-80
2022/06/30 08:18:50;;;;;;;19.05;6.85;;;;;;;19.45;76.77;101006.13;5073244;28;20609;-80
2022/06/30 08:21:16;;;;;;;18.98;7.05;;;;;;;19.52;77.16;101004.44;5079901;28;20031;-80
2022/06/30 08:23:41;;;;;;;18.77;6.20;;;;;;;19.61;77.23;101001.75;5078432;28;20039;-80
2022/06/30 08:26:06;;;;;;;16.27;6.07;;;;;;;19.65;75.98;101008.53;5072197;28;20392;-80
2022/06/30 08:28:33;;;;;;;21.42;6.57;;;;;;;19.68;73.75;101005.50;5079728;28;20123;-80
2022/06/30 08:31:00;;;;;;;23.83;7.05;;;;;;;19.73;75.30;101020.31;5077819;28;20115;-80
2022/06/30 08:33:26;;;;;;;16.45;6.35;;;;;;;19.79;74.81;101016.09;5074465;28;20486;-80
2022/06/30 08:35:51;;;;;;;17.23;6.70;;;;;;;19.80;73.76;101019.69;5073653;28;20020;-81
2022/06/30 08:38:16;;;;;;;18.88;6.80;;;;;;;19.85;74.07;101015.41;5076465;28;20173;-80
2022/06/30 08:43:27;;;;;;;19.38;5.78;;;;;;;19.95;73.98;101011.69;5060980;28;20447;-80
2022/06/30 08:45:54;;;;;;;16.65;5.93;;;;;;;20.01;74.24;101025.47;5068578;28;20341;-81
2022/06/30 08:48:19;;;;;;;18.45;6.03;;;;;;;20.06;74.78;101014.06;5068968;28;20505;-81
2022/06/30 08:50:47;;;;;;;19.88;6.30;;;;;;;20.08;72.89;101010.13;5064850;28;20026;-80
2022/06/30 08:53:15;;;;;;;17.83;6.43;;;;;;;20.15;74.27;101010.31;5069470;28;20066;-81
2022/06/30 08:55:41;;;;;;;14.63;5.35;;;;;;;20.19;74.64;101017.13;5070940;28;20161;-80
2022/06/30 08:58:08;;;;;;;18.98;6.68;;;;;;;20.18;72.70;101014.59;5076651;28;20066;-81
2022/06/30 09:00:36;;;;;;;18.23;6.93;;;;;;;20.22;72.12;101015.91;5064756;28;20753;-81
2022/06/30 09:03:03;;;;;;;16.40;6.10;;;;;;;20.28;72.41;101022.56;5064163;28;20096;-81
2022/06/30 09:05:28;;;;;;;16.35;6.00;;;;;;;20.34;74.16;101024.63;5069321;28;20015;-81
2022/06/30 09:07:54;;;;;;;20.73;5.75;;;;;;;20.37;72.82;101018.81;5063542;28;20141;-81
2022/06/30 09:10:20;;;;;;;17.40;5.22;;;;;;;20.40;71.62;101021.19;5067198;28;20049;-80
2022/06/30 09:13:02;;;;;;;22.00;5.78;;;;;;;20.46;73.04;101022.41;5066416;28;20033;-80
2022/06/30 09:15:32;;;;;;;18.05;5.80;;;;;;;20.53;71.88;101016.06;5082179;28;20115;-80
2022/06/30 09:18:00;;;;;;;15.57;5.13;;;;;;;20.51;69.61;101028.16;5064833;28;20054;-80
2022/06/30 09:20:37;;;;;;;18.33;6.13;;;;;;;20.54;70.61;101025.09;5077495;28;20025;-80
2022/06/30 09:23:29;;;;;;;19.67;6.40;;;;;;;20.58;71.27;101021.00;5073396;28;20090;-80
2022/06/30 09:25:57;;;;;;;18.00;5.57;;;;;;;20.60;70.08;101025.25;5071639;28;20036;-80
2022/06/30 09:28:45;;;;;;;16.38;5.63;;;;;;;20.66;71.49;101023.75;5083386;28;20054;-80
2022/06/30 09:31:14;;;;;;;18.93;5.20;;;;;;;20.71;69.67;101023.22;5071551;28;20064;-80
2022/06/30 09:33:41;;;;;;;17.67;5.10;;;;;;;20.77;69.47;101025.25;5074215;28;20028;-80
2022/06/30 09:36:29;;;;;;;17.15;5.28;;;;;;;20.82;69.96;101028.31;5062946;28;20012;-80
2022/06/30 09:39:01;;;;;;;17.15;4.80;;;;;;;20.80;68.82;101030.34;5065559;28;20075;-79
2022/06/30 09:41:28;;;;;;;13.65;4.13;;;;;;;20.76;70.05;101032.59;5071852;28;20369;-79
2022/06/30 09:43:53;;;;;;;18.73;6.20;;;;;;;20.78;69.40;101027.78;5061472;28;20032;-79
2022/06/30 09:46:19;;;;;;;14.73;4.40;;;;;;;20.81;67.94;101032.06;5062123;28;20368;-79
2022/06/30 09:48:44;;;;;;;16.63;4.85;;;;;;;20.84;67.61;101033.59;5073989;28;20852;-78
2022/06/30 09:51:09;;;;;;;14.68;4.32;;;;;;;20.90;69.07;101036.47;5073989;28;20031;-79
2022/06/30 09:53:35;;;;;;;16.73;4.82;;;;;;;20.96;67.89;101040.38;5081672;28;20484;-79
2022/06/30 09:56:15;;;;;;;13.98;4.75;;;;;;;21.01;69.07;101032.50;5082079;28;20030;-79
2022/06/30 09:58:42;;;;;;;15.25;4.07;;;;;;;21.04;68.82;101034.88;5070821;28;20348;-79
2022/06/30 10:01:09;;;;;;;14.82;4.38;;;;;;;21.13;69.55;101041.16;5066151;28;20032;-79
2022/06/30 10:03:44;;;;;;;17.20;5.30;;;;;;;21.22;67.46;101031.91;5074183;28;20021;-79
2022/06/30 10:06:12;;;;;;;7.47;2.75;;;;;;;21.19;68.20;101037.72;5069711;28;20057;-79
2022/06/30 10:08:38;;;;;;;20.35;5.97;;;;;;;21.22;63.77;101039.25;5065386;28;20038;-79
2022/06/30 10:11:05;;;;;;;14.73;4.57;;;;;;;21.27;64.75;101039.56;5073162;28;20524;-80
2022/06/30 10:13:35;;;;;;;9.25;3.67;;;;;;;21.33;67.85;101038.84;5068682;28;20048;-80
2022/06/30 10:16:03;;;;;;;13.02;4.60;;;;;;;21.40;65.80;101042.56;5071582;28;20039;-80
2022/06/30 10:18:30;;;;;;;14.20;4.20;;;;;;;21.49;67.75;101048.84;5069667;28;20425;-79
2022/06/30 10:20:58;;;;;;;17.15;5.50;;;;;;;21.51;65.85;101041.34;5069525;28;20497;-80
2022/06/30 10:23:24;;;;;;;17.17;5.55;;;;;;;21.54;65.07;101030.06;5061816;28;20035;-80
2022/06/30 10:25:50;;;;;;;20.60;5.70;;;;;;;21.56;64.25;101025.25;5062388;28;20082;-80
2022/06/30 10:28:20;;;;;;;13.82;4.55;;;;;;;21.59;67.02;101029.50;5068116;28;20127;-80
2022/06/30 10:30:48;;;;;;;14.68;4.15;;;;;;;21.68;67.08;101030.31;5076139;28;20033;-80
2022/06/30 10:33:37;;;;;;;16.25;5.50;;;;;;;21.66;67.84;101035.13;5075906;28;20043;-80
2022/06/30 10:36:29;;;;;;;11.93;3.97;;;;;;;21.67;67.87;101032.19;5072390;28;20056;-79
2022/06/30 10:39:03;;;;;;;11.80;3.55;;;;;;;21.65;66.71;101023.31;5073653;28;20399;-79
2022/06/30 10:41:28;;;;;;;16.50;5.05;;;;;;;21.68;65.84;101033.03;5076284;28;20047;-79
2022/06/30 10:44:03;;;;;;;13.77;4.47;;;;;;;21.80;68.95;101026.09;5075408;28;20059;-80
2022/06/30 10:46:28;;;;;;;19.30;5.03;;;;;;;21.91;67.64;101031.16;5068462;28;20435;-80
2022/06/30 10:48:54;;;;;;;15.10;4.65;;;;;;;21.95;65.20;101029.75;5066918;28;20028;-79
2022/06/30 10:51:21;;;;;;;11.55;4.40;;;;;;;21.98;66.06;101028.56;5073600;28;20043;-79
2022/06/30 10:53:46;;;;;;;15.15;5.05;;;;;;;22.03;65.17;101033.47;5064033;28;20186;-79
2022/06/30 10:56:11;;;;;;;14.67;5.00;;;;;;;22.03;64.15;101020.63;5066528;28;20060;-80
2022/06/30 10:58:57;;;;;;;16.52;5.82;;;;;;;22.02;62.63;101023.53;5065152;28;20347;-80
2022/06/30 11:01:22;;;;;;;17.38;5.00;;;;;;;22.05;65.01;101028.66;5062461;28;20043;-80
2022/06/30 11:03:50;;;;;;;17.45;5.22;;;;;;;22.05;64.70;101035.00;5065835;28;20033;-80
2022/06/30 11:06:16;;;;;;;17.67;5.13;;;;;;;22.05;64.35;101034.13;5072643;28;20028;-80
2022/06/30 11:11:36;;;;;;;14.63;5.32;;;;;;;22.06;62.82;101024.88;5062153;28;20052;-80
2022/06/30 11:14:04;;;;;;;10.80;4.25;;;;;;;22.13;63.38;101025.84;5067554;28;20048;-80
2022/06/30 11:16:35;;;;;;;19.35;4.55;;;;;;;22.22;65.82;101019.25;5068364;28;20541;-79
2022/06/30 11:19:04;;;;;;;16.35;4.85;;;;;;;22.24;62.45;101021.81;5071391;28;20032;-80
2022/06/30 11:21:31;;;;;;;9.47;4.03;;;;;;;22.28;64.51;101009.47;5074634;28;20118;-79
2022/06/30 11:24:00;;;;;;;7.72;3.15;;;;;;;22.28;64.53;101007.56;5065430;28;20033;-79